Time;durP1;ratioP1;P1;durP2;ratioP2;P2;SDS_P1;SDS_P2;PMS_P1;PMS_P2;Temp;Humidity;BMP_temperature;BMP_pressure;BME280_temperature;BME280_humidity;BME280_pressure;Samples;Min_cycle;Max_cycle;Signal;HPM_P1;HPM_P2
2022/04/03 00:00:06;;;;;;;8.18;6.70;;;;;;;-1.06;74.45;100814.84;5083441;28;20201;-69
2022/04/03 00:02:32;;;;;;;6.40;5.63;;;;;;;-1.06;74.74;100820.09;5081742;28;20312;-68
2022/04/03 00:04:59;;;;;;;9.02;6.90;;;;;;;-0.91;74.63;100822.19;5082623;28;20213;-68
2022/04/03 00:07:26;;;;;;;7.57;6.05;;;;;;;-0.85;74.28;100821.97;5082160;28;20237;-68
2022/04/03 00:09:54;;;;;;;6.60;5.82;;;;;;;-0.75;74.00;100817.25;5082925;28;20193;-68
2022/04/03 00:12:21;;;;;;;7.15;6.43;;;;;;;-0.77;74.11;100819.94;5080533;28;20747;-67
2022/04/03 00:14:48;;;;;;;8.45;6.38;;;;;;;-0.73;73.98;100815.41;5077482;28;20275;-68
2022/04/03 00:17:15;;;;;;;7.60;6.25;;;;;;;-0.78;74.01;100812.97;5080893;28;20229;-68
2022/04/03 00:19:41;;;;;;;9.85;6.38;;;;;;;-0.85;74.13;100814.13;5081859;28;20468;-68
2022/04/03 00:22:08;;;;;;;8.00;6.57;;;;;;;-0.86;74.33;100812.38;5079766;28;20253;-67
2022/04/03 00:24:35;;;;;;;7.27;6.53;;;;;;;-0.91;74.46;100811.69;5082356;28;20221;-67
2022/04/03 00:27:04;;;;;;;7.47;6.43;;;;;;;-0.89;74.46;100811.63;5082201;28;20498;-67
2022/04/03 00:29:31;;;;;;;7.43;6.70;;;;;;;-0.98;74.72;100820.69;5083173;28;20591;-67
2022/04/03 00:31:58;;;;;;;8.70;6.05;;;;;;;-0.91;74.79;100816.09;5081073;28;20233;-67
2022/04/03 00:34:24;;;;;;;9.80;7.22;;;;;;;-0.89;74.72;100814.25;5072587;28;20264;-68
2022/04/03 00:36:53;;;;;;;7.70;6.72;;;;;;;-0.88;74.76;100827.34;5060359;28;20235;-68
2022/04/03 00:39:20;;;;;;;6.72;5.40;;;;;;;-0.89;75.04;100828.22;5062483;28;20226;-68
2022/04/03 00:41:47;;;;;;;8.00;6.38;;;;;;;-0.88;74.94;100831.75;5073810;28;20726;-68
2022/04/03 00:44:16;;;;;;;7.68;6.43;;;;;;;-0.85;74.71;100819.38;5081534;28;20225;-67
2022/04/03 00:46:43;;;;;;;9.48;6.45;;;;;;;-0.92;75.17;100822.22;5080335;28;20291;-68
2022/04/03 00:49:09;;;;;;;8.50;7.00;;;;;;;-0.98;75.25;100812.81;5080500;28;20583;-68
2022/04/03 00:51:37;;;;;;;7.68;6.88;;;;;;;-0.98;75.24;100818.06;5081815;28;20260;-67
2022/04/03 00:54:04;;;;;;;8.40;6.30;;;;;;;-0.98;75.31;100816.28;5082093;28;20214;-68
2022/04/03 00:56:32;;;;;;;9.52;7.05;;;;;;;-1.00;75.35;100820.75;5081284;28;20244;-67
2022/04/03 00:58:58;;;;;;;7.57;6.38;;;;;;;-1.09;75.52;100815.81;5081971;28;20190;-67
2022/04/03 01:01:27;;;;;;;7.22;5.57;;;;;;;-1.05;75.50;100821.81;5070761;28;20630;-67
2022/04/03 01:03:54;;;;;;;8.90;6.45;;;;;;;-1.17;75.56;100816.06;5061318;28;20285;-68
2022/04/03 01:06:20;;;;;;;7.45;6.75;;;;;;;-1.21;75.85;100818.84;5061243;28;20229;-68
2022/04/03 01:08:47;;;;;;;6.80;6.05;;;;;;;-1.25;76.12;100815.47;5065620;28;20212;-68
2022/04/03 01:11:14;;;;;;;7.78;6.65;;;;;;;-1.24;76.50;100800.59;5081394;28;20637;-68
2022/04/03 01:13:48;;;;;;;7.75;5.85;;;;;;;-1.20;76.57;100810.94;5072469;28;20215;-68
2022/04/03 01:16:15;;;;;;;7.60;6.50;;;;;;;-1.17;76.42;100817.84;5080766;28;20241;-68
2022/04/03 01:18:43;;;;;;;7.22;6.53;;;;;;;-1.11;76.47;100815.00;5080889;28;20240;-67
2022/04/03 01:21:10;;;;;;;9.50;7.15;;;;;;;-1.17;76.39;100817.84;5080974;28;20241;-68
2022/04/03 01:23:38;;;;;;;8.40;7.50;;;;;;;-1.24;76.40;100813.72;5081591;28;20186;-68
2022/04/03 01:26:06;;;;;;;7.00;6.28;;;;;;;-1.19;76.58;100815.25;5080326;28;20233;-68
2022/04/03 01:28:33;;;;;;;9.10;6.85;;;;;;;-1.16;76.54;100809.06;5081486;28;20692;-67
2022/04/03 01:31:00;;;;;;;7.88;6.28;;;;;;;-1.05;76.24;100814.78;5080723;28;20732;-68
2022/04/03 01:33:27;;;;;;;7.30;6.60;;;;;;;-1.05;76.15;100806.91;5079193;28;20222;-67
2022/04/03 01:35:54;;;;;;;8.57;6.50;;;;;;;-1.01;76.01;100815.53;5060724;28;20247;-68
2022/04/03 01:38:20;;;;;;;6.20;5.57;;;;;;;-1.01;76.05;100812.91;5072174;28;20294;-69
2022/04/03 01:40:47;;;;;;;7.50;6.70;;;;;;;-1.04;75.87;100807.75;5080682;28;20233;-69
2022/04/03 01:43:15;;;;;;;9.05;6.65;;;;;;;-1.02;75.66;100805.97;5080953;28;20695;-67
2022/04/03 01:45:42;;;;;;;8.30;7.25;;;;;;;-1.00;75.49;100806.75;5080811;28;20290;-67
2022/04/03 01:48:09;;;;;;;8.38;7.03;;;;;;;-1.09;75.52;100810.56;5080652;28;20292;-67
2022/04/03 01:50:36;;;;;;;10.25;7.18;;;;;;;-1.22;75.98;100804.84;5080159;28;20274;-66
2022/04/03 01:53:03;;;;;;;10.30;6.70;;;;;;;-1.26;76.55;100791.91;5080503;28;20671;-67
2022/04/03 01:55:30;;;;;;;9.23;7.20;;;;;;;-1.26;76.84;100803.25;5080621;28;20233;-67
2022/04/03 01:57:57;;;;;;;10.50;7.95;;;;;;;-1.13;76.73;100808.94;5080798;28;20197;-67
2022/04/03 02:00:26;;;;;;;8.07;7.20;;;;;;;-1.10;76.60;100808.84;5080789;28;20193;-67
2022/04/03 02:02:53;;;;;;;12.20;7.07;;;;;;;-1.08;76.43;100816.66;5072699;28;20266;-68
2022/04/03 02:05:21;;;;;;;7.22;6.53;;;;;;;-0.95;76.18;100804.84;5080068;28;20260;-67
2022/04/03 02:07:49;;;;;;;8.77;7.18;;;;;;;-1.00;75.98;100806.75;5080434;28;20216;-68
2022/04/03 02:10:15;;;;;;;7.78;6.97;;;;;;;-1.01;76.06;100795.41;5080575;28;20248;-67
2022/04/03 02:12:42;;;;;;;9.45;6.63;;;;;;;-1.03;75.91;100796.38;5081164;28;20186;-67
2022/04/03 02:15:11;;;;;;;7.80;6.78;;;;;;;-0.97;76.09;100802.28;5079074;28;20252;-67
2022/04/03 02:17:40;;;;;;;7.72;6.57;;;;;;;-0.97;76.24;100802.28;5079957;28;20213;-67
2022/04/03 02:20:09;;;;;;;9.00;6.82;;;;;;;-0.95;76.38;100800.44;5079730;28;20213;-67
2022/04/03 02:22:35;;;;;;;7.55;6.80;;;;;;;-0.97;76.15;100801.41;5080443;28;20668;-67
2022/04/03 02:25:03;;;;;;;8.23;6.35;;;;;;;-1.14;76.57;100796.75;5079617;28;20205;-67
2022/04/03 02:27:31;;;;;;;8.07;6.50;;;;;;;-1.06;76.71;100785.97;5079421;28;20282;-68
2022/04/03 02:29:58;;;;;;;8.45;7.60;;;;;;;-0.96;76.55;100790.00;5040522;28;20298;-67
2022/04/03 02:32:25;;;;;;;7.28;5.85;;;;;;;-0.88;76.33;100792.38;5038504;28;20851;-67
2022/04/03 02:34:54;;;;;;;8.75;7.13;;;;;;;-0.84;75.51;100812.34;5058279;28;20301;-68
2022/04/03 02:37:21;;;;;;;10.15;8.55;;;;;;;-0.85;75.86;100821.09;5059224;28;20245;-67
2022/04/03 02:39:47;;;;;;;9.82;7.05;;;;;;;-0.78;75.49;100797.22;5078097;28;20206;-68
2022/04/03 02:42:14;;;;;;;8.55;7.65;;;;;;;-0.90;75.97;100792.41;5079233;28;20226;-67
2022/04/03 02:44:41;;;;;;;8.13;7.07;;;;;;;-0.98;76.72;100797.06;5080186;28;20268;-68
2022/04/03 02:47:08;;;;;;;7.70;6.90;;;;;;;-0.90;76.69;100794.16;5078735;28;20233;-68
2022/04/03 02:49:35;;;;;;;7.43;6.63;;;;;;;-1.06;76.87;100786.84;5079601;28;20470;-68
2022/04/03 02:52:05;;;;;;;7.95;6.50;;;;;;;-0.67;75.62;100782.84;5079525;28;20237;-68
2022/04/03 02:54:32;;;;;;;9.05;6.93;;;;;;;-0.62;74.90;100792.28;5079530;28;20600;-68
2022/04/03 02:56:59;;;;;;;9.45;6.88;;;;;;;-0.56;74.69;100793.81;5078733;28;20296;-68
2022/04/03 02:59:25;;;;;;;7.47;6.68;;;;;;;-0.57;74.58;100798.22;5080150;28;20259;-68
2022/04/03 03:01:52;;;;;;;12.05;6.72;;;;;;;-0.81;75.36;100809.59;5075703;28;20256;-67
2022/04/03 03:04:19;;;;;;;11.07;6.97;;;;;;;-0.61;75.63;100798.38;5059179;28;20210;-67
2022/04/03 03:06:46;;;;;;;9.68;7.38;;;;;;;-0.52;74.82;100805.06;5059200;28;20273;-67
2022/04/03 03:09:14;;;;;;;7.85;6.97;;;;;;;-0.62;75.00;100799.31;5060080;28;20349;-67
2022/04/03 03:11:41;;;;;;;10.25;7.82;;;;;;;-0.55;75.13;100799.94;5038557;28;20242;-67
2022/04/03 03:14:08;;;;;;;9.93;8.30;;;;;;;-0.53;75.42;100798.13;5039577;28;20247;-67
2022/04/03 03:16:34;;;;;;;8.75;7.43;;;;;;;-0.51;75.30;100802.38;5038978;28;20238;-67
2022/04/03 03:19:01;;;;;;;6.82;6.20;;;;;;;-0.66;75.43;100802.94;5039455;28;20210;-67
2022/04/03 03:21:28;;;;;;;10.45;6.53;;;;;;;-0.49;74.64;100811.06;5073716;28;20301;-67
2022/04/03 03:23:55;;;;;;;7.78;6.95;;;;;;;-0.62;75.09;100792.28;5079176;28;20201;-67
2022/04/03 03:26:23;;;;;;;7.63;6.90;;;;;;;-0.72;76.36;100790.03;5078464;28;20252;-67
2022/04/03 03:28:50;;;;;;;12.27;7.20;;;;;;;-0.72;76.58;100785.63;5080060;28;20194;-67
2022/04/03 03:31:16;;;;;;;8.63;7.30;;;;;;;-0.67;76.30;100798.63;5078331;28;20237;-67
2022/04/03 03:33:43;;;;;;;12.10;8.07;;;;;;;-0.65;75.95;100799.41;5071869;28;20600;-68
2022/04/03 03:36:11;;;;;;;9.63;8.35;;;;;;;-0.42;75.26;100803.81;5078888;28;20640;-68
2022/04/03 03:38:37;;;;;;;10.45;8.30;;;;;;;-0.39;74.93;100798.44;5079368;28;20265;-68
2022/04/03 03:41:04;;;;;;;11.93;8.00;;;;;;;-0.29;74.70;100797.19;5079093;28;20260;-68
2022/04/03 03:43:33;;;;;;;8.65;7.75;;;;;;;-0.27;74.92;100797.13;5072806;28;20898;-67
2022/04/03 03:45:59;;;;;;;10.07;7.82;;;;;;;-0.47;75.46;100790.00;5058891;28;20226;-67
2022/04/03 03:48:26;;;;;;;11.35;7.47;;;;;;;-0.42;75.52;100793.31;5058520;28;20236;-67
2022/04/03 03:50:53;;;;;;;11.18;8.25;;;;;;;-0.36;75.57;100798.34;5058494;28;20241;-67
2022/04/03 03:53:20;;;;;;;10.20;7.97;;;;;;;-0.32;75.35;100799.94;5058932;28;20244;-67
2022/04/03 03:55:46;;;;;;;12.90;7.65;;;;;;;-0.31;75.44;100800.78;5059126;28;20481;-67
2022/04/03 03:58:13;;;;;;;10.70;8.45;;;;;;;-0.29;75.33;100801.59;5049777;28;20245;-67
2022/04/03 04:00:42;;;;;;;8.40;7.03;;;;;;;-0.34;75.55;100795.66;5039315;28;20234;-68
2022/04/03 04:03:09;;;;;;;7.90;7.10;;;;;;;-0.52;76.20;100794.56;5044879;28;20488;-68
2022/04/03 04:05:35;;;;;;;8.13;7.07;;;;;;;-0.46;76.56;100786.47;5058893;28;20258;-68
2022/04/03 04:08:02;;;;;;;8.60;7.03;;;;;;;-0.37;75.78;100783.47;5058587;28;20207;-68
2022/04/03 04:10:29;;;;;;;9.80;6.45;;;;;;;-0.36;75.46;100794.84;5058853;28;20302;-67
2022/04/03 04:12:56;;;;;;;8.50;6.80;;;;;;;-0.12;74.25;100799.19;5053214;28;20199;-68
2022/04/03 04:15:23;;;;;;;6.82;6.13;;;;;;;-0.15;73.77;100812.44;5038343;28;20237;-67
2022/04/03 04:17:53;;;;;;;7.07;6.40;;;;;;;-0.04;74.11;100812.88;5042443;28;20202;-68
2022/04/03 04:20:21;;;;;;;7.93;6.18;;;;;;;0.02;74.19;100810.91;5058015;28;20462;-67
2022/04/03 04:22:49;;;;;;;11.85;6.55;;;;;;;0.06;74.39;100807.28;5056065;28;20266;-68
2022/04/03 04:25:16;;;;;;;10.10;6.73;;;;;;;0.17;73.66;100807.69;5040519;28;20215;-67
2022/04/03 04:27:44;;;;;;;9.90;6.97;;;;;;;0.14;73.87;100815.69;5059764;28;20449;-68
2022/04/03 04:30:11;;;;;;;7.65;6.85;;;;;;;-0.09;74.72;100808.72;5061592;28;20229;-68
2022/04/03 04:32:38;;;;;;;8.73;7.53;;;;;;;-0.26;75.44;100811.97;5045068;28;20684;-68
2022/04/03 04:35:06;;;;;;;8.85;6.70;;;;;;;-0.23;75.71;100809.22;5042331;28;20230;-67
2022/04/03 04:37:34;;;;;;;10.15;7.15;;;;;;;-0.16;75.74;100815.13;5041422;28;20250;-68
2022/04/03 04:40:01;;;;;;;10.20;7.65;;;;;;;-0.25;76.32;100816.31;5044196;28;20199;-68
2022/04/03 04:42:28;;;;;;;9.40;7.93;;;;;;;-0.23;76.27;100817.97;5041859;28;20246;-68
2022/04/03 04:44:55;;;;;;;9.03;7.10;;;;;;;-0.20;76.09;100817.00;5063217;28;20468;-67
2022/04/03 04:47:22;;;;;;;7.82;6.95;;;;;;;-0.12;76.29;100816.69;5081216;28;20889;-68
2022/04/03 04:49:49;;;;;;;9.32;6.80;;;;;;;-0.03;75.70;100829.50;5081327;28;20196;-67
2022/04/03 04:52:17;;;;;;;11.40;7.72;;;;;;;0.05;75.33;100824.78;5081808;28;20245;-68
2022/04/03 04:54:44;;;;;;;7.57;6.82;;;;;;;0.04;75.12;100817.00;5081891;28;20736;-68
2022/04/03 04:57:11;;;;;;;9.05;7.90;;;;;;;0.06;75.05;100823.91;5081618;28;20233;-68
2022/04/03 04:59:37;;;;;;;9.85;7.22;;;;;;;-0.03;74.85;100830.34;5082156;28;20198;-68
2022/04/03 05:02:05;;;;;;;10.27;7.90;;;;;;;-0.01;74.87;100828.53;5072643;28;20845;-68
2022/04/03 05:04:32;;;;;;;11.60;8.25;;;;;;;-0.10;74.94;100821.00;5062223;28;20429;-68
2022/04/03 05:06:59;;;;;;;9.85;7.80;;;;;;;-0.20;75.12;100823.09;5061159;28;20271;-68
2022/04/03 05:09:27;;;;;;;10.87;7.30;;;;;;;-0.25;75.32;100827.69;5070310;28;20198;-68
2022/04/03 05:11:54;;;;;;;14.10;8.53;;;;;;;-0.35;75.74;100831.56;5081641;28;20482;-68
2022/04/03 05:14:21;;;;;;;11.77;7.75;;;;;;;-0.33;75.90;100836.75;5081836;28;20546;-67
2022/04/03 05:16:48;;;;;;;11.57;8.52;;;;;;;-0.31;76.00;100827.03;5068061;28;20260;-67
2022/04/03 05:19:15;;;;;;;7.65;6.85;;;;;;;0.23;75.23;100830.28;5065381;28;20370;-67
2022/04/03 05:21:43;;;;;;;11.30;8.38;;;;;;;0.74;72.99;100829.94;5080570;28;20256;-67
2022/04/03 05:24:09;;;;;;;8.85;7.95;;;;;;;1.33;70.32;100832.72;5081417;28;20229;-67
2022/04/03 05:26:38;;;;;;;8.50;6.93;;;;;;;2.14;67.32;100822.91;5072928;28;20230;-67
2022/04/03 05:29:04;;;;;;;10.10;7.37;;;;;;;2.48;65.27;100815.13;5077805;28;20494;-67
2022/04/03 05:31:31;;;;;;;7.90;7.00;;;;;;;2.81;63.20;100815.25;5065228;28;20955;-67
2022/04/03 05:33:58;;;;;;;9.17;6.90;;;;;;;3.20;62.11;100820.28;5081175;28;20520;-67
2022/04/03 05:36:25;;;;;;;8.30;6.23;;;;;;;4.04;59.32;100811.41;5079840;28;20471;-68
2022/04/03 05:38:51;;;;;;;7.93;5.87;;;;;;;4.66;56.72;100815.91;5081683;28;20470;-65
2022/04/03 05:41:18;;;;;;;7.83;5.03;;;;;;;4.10;57.91;100815.53;5079618;28;20507;-69
2022/04/03 05:43:46;;;;;;;5.80;5.30;;;;;;;4.78;56.38;100822.28;5078838;28;20487;-67
2022/04/03 05:46:13;;;;;;;5.60;4.80;;;;;;;5.03;54.88;100822.53;5069274;28;20581;-67
2022/04/03 05:48:40;;;;;;;6.27;5.30;;;;;;;4.19;56.73;100830.06;5059479;28;20449;-67
2022/04/03 05:51:07;;;;;;;6.50;5.03;;;;;;;4.34;56.94;100832.69;5060677;28;20475;-74
2022/04/03 05:53:34;;;;;;;7.10;5.00;;;;;;;5.41;54.79;100834.44;5065363;28;20467;-74
2022/04/03 05:56:00;;;;;;;7.07;5.27;;;;;;;6.50;51.41;100843.56;5080722;28;20545;-73
2022/04/03 05:58:27;;;;;;;6.50;4.87;;;;;;;7.35;48.13;100840.59;5080668;28;20491;-74
2022/04/03 06:00:55;;;;;;;5.40;4.70;;;;;;;7.74;47.14;100825.47;5064513;28;20480;-74
2022/04/03 06:03:22;;;;;;;6.10;4.40;;;;;;;9.20;42.99;100822.78;5062169;28;20494;-74
2022/04/03 06:05:51;;;;;;;7.40;4.70;;;;;;;8.33;44.57;100829.28;5083042;28;20464;-74
2022/04/03 06:08:18;;;;;;;6.53;5.00;;;;;;;7.63;46.21;100839.53;5082645;28;20483;-75
2022/04/03 06:10:45;;;;;;;8.00;5.40;;;;;;;8.65;43.55;100833.13;5080372;28;20555;-73
2022/04/03 06:13:13;;;;;;;6.80;4.70;;;;;;;9.67;41.49;100835.22;5080699;28;20493;-73
2022/04/03 06:15:42;;;;;;;8.27;6.93;;;;;;;9.51;41.46;100840.91;5079425;28;20479;-72
2022/04/03 06:18:11;;;;;;;5.40;4.03;;;;;;;11.06;38.88;100847.13;5079061;28;20452;-72
2022/04/03 06:20:38;;;;;;;5.17;4.53;;;;;;;12.46;35.46;100852.88;5079759;28;20471;-69
2022/04/03 06:23:10;;;;;;;5.83;4.47;;;;;;;12.90;34.27;100852.53;5079903;28;20448;-71
2022/04/03 06:25:37;;;;;;;4.70;3.70;;;;;;;11.35;36.48;100854.50;5079110;28;20463;-69
2022/04/03 06:28:04;;;;;;;4.70;4.20;;;;;;;11.75;34.99;100856.44;5079646;28;20452;-69
2022/04/03 06:30:31;;;;;;;6.43;4.83;;;;;;;12.64;34.26;100855.75;5070572;28;20495;-70
2022/04/03 06:32:58;;;;;;;5.50;3.90;;;;;;;12.45;34.00;100853.91;5070034;28;20459;-69
2022/04/03 06:35:26;;;;;;;3.80;3.20;;;;;;;12.69;33.65;100856.19;5059309;28;20832;-69
2022/04/03 06:37:53;;;;;;;4.93;3.80;;;;;;;12.91;33.14;100855.06;5063709;28;21025;-69
2022/04/03 06:40:20;;;;;;;4.60;3.10;;;;;;;12.30;33.51;100858.78;5074691;28;20452;-69
2022/04/03 06:42:47;;;;;;;3.30;3.00;;;;;;;12.04;34.59;100855.75;5059128;28;20464;-71
2022/04/03 06:45:15;;;;;;;4.97;3.70;;;;;;;9.23;39.56;100854.56;5072226;28;20459;-68
2022/04/03 06:47:42;;;;;;;3.73;2.73;;;;;;;10.73;37.31;100858.81;5078740;28;20838;-68
2022/04/03 06:50:09;;;;;;;7.07;3.10;;;;;;;11.70;35.43;100853.31;5078837;28;20432;-68
2022/04/03 06:52:38;;;;;;;7.60;3.73;;;;;;;12.22;34.46;100859.47;5068339;28;20466;-68
2022/04/03 06:55:05;;;;;;;3.40;3.10;;;;;;;12.15;34.79;100858.34;5066436;28;20485;-69
2022/04/03 06:57:32;;;;;;;5.07;3.40;;;;;;;12.97;33.13;100853.69;5062672;28;20476;-69
2022/04/03 06:59:59;;;;;;;4.33;3.27;;;;;;;12.62;33.08;100853.22;5065461;28;20503;-69
2022/04/03 07:02:26;;;;;;;4.80;3.30;;;;;;;11.33;34.80;100856.47;5066164;28;20654;-69
2022/04/03 07:04:53;;;;;;;6.03;2.63;;;;;;;10.86;35.43;100853.28;5080075;28;20448;-69
2022/04/03 07:07:23;;;;;;;3.47;2.70;;;;;;;10.22;36.97;100864.72;5078914;28;20487;-71
2022/04/03 07:09:52;;;;;;;3.03;2.40;;;;;;;12.35;33.46;100869.94;5065582;28;20475;-69
2022/04/03 07:12:19;;;;;;;5.93;2.80;;;;;;;11.88;33.66;100862.41;5055209;28;20982;-68
2022/04/03 07:14:46;;;;;;;5.77;3.27;;;;;;;12.17;33.28;100858.16;5056491;28;20484;-68
2022/04/03 07:17:13;;;;;;;3.70;2.60;;;;;;;10.33;36.70;100860.25;5057969;28;20485;-69
2022/04/03 07:19:40;;;;;;;3.90;2.53;;;;;;;9.19;38.62;100858.44;5055166;28;20456;-68
2022/04/03 07:22:06;;;;;;;5.77;2.23;;;;;;;9.86;37.09;100851.50;5056796;28;20540;-69
2022/04/03 07:24:33;;;;;;;4.80;3.50;;;;;;;8.72;39.72;100862.84;5059381;28;20429;-68
2022/04/03 07:27:01;;;;;;;4.80;3.03;;;;;;;9.03;39.16;100865.91;5058730;28;20468;-68
2022/04/03 07:29:28;;;;;;;4.27;2.60;;;;;;;11.34;35.71;100860.00;5060059;28;20474;-69
2022/04/03 07:31:55;;;;;;;3.00;2.50;;;;;;;13.01;31.50;100865.81;5058970;28;20546;-69
2022/04/03 07:34:22;;;;;;;4.07;3.03;;;;;;;13.64;30.72;100864.50;5058515;28;20526;-69
2022/04/03 07:36:49;;;;;;;4.83;2.80;;;;;;;15.44;28.67;100857.56;5058475;28;20504;-69
2022/04/03 07:39:16;;;;;;;3.10;2.60;;;;;;;10.81;33.93;100869.72;5058306;28;20449;-69
2022/04/03 07:41:43;;;;;;;4.17;2.30;;;;;;;12.75;32.12;100860.16;5058074;28;20477;-69
2022/04/03 07:44:12;;;;;;;3.43;2.40;;;;;;;11.66;32.65;100867.94;5057842;28;20516;-68
2022/04/03 07:46:39;;;;;;;2.67;2.07;;;;;;;13.71;29.36;100862.91;5056134;28;20558;-69
2022/04/03 07:49:05;;;;;;;3.87;2.10;;;;;;;12.59;31.05;100866.06;5056083;28;20465;-69
2022/04/03 07:51:32;;;;;;;4.67;2.77;;;;;;;11.06;32.90;100867.69;5057616;28;20495;-68
2022/04/03 07:53:59;;;;;;;2.93;2.50;;;;;;;10.52;32.27;100856.94;5058572;28;20487;-68
2022/04/03 07:56:26;;;;;;;3.00;2.20;;;;;;;11.70;32.37;100864.03;5056861;28;20461;-68
2022/04/03 07:58:53;;;;;;;3.40;2.60;;;;;;;13.01;29.79;100865.81;5060067;28;20471;-68
2022/04/03 08:01:21;;;;;;;6.10;2.57;;;;;;;13.21;29.87;100855.06;5059305;28;20473;-69
2022/04/03 08:03:48;;;;;;;7.10;3.50;;;;;;;11.27;31.88;100865.88;5061699;28;20460;-68
2022/04/03 08:06:15;;;;;;;5.07;3.17;;;;;;;11.97;31.05;100863.47;5064345;28;20487;-69
2022/04/03 08:08:42;;;;;;;2.57;2.30;;;;;;;11.28;32.32;100861.34;5062643;28;20457;-68
2022/04/03 08:11:10;;;;;;;4.63;2.70;;;;;;;13.12;29.43;100859.44;5061907;28;20739;-69
2022/04/03 08:13:36;;;;;;;4.10;3.30;;;;;;;11.71;31.01;100856.84;5063639;28;20520;-68
2022/04/03 08:16:03;;;;;;;3.17;2.50;;;;;;;12.98;29.79;100860.72;5067719;28;20638;-69
2022/04/03 08:18:32;;;;;;;4.80;2.10;;;;;;;12.14;30.35;100862.00;5060002;28;20465;-69
2022/04/03 08:20:58;;;;;;;2.90;2.40;;;;;;;11.60;31.11;100871.16;5063813;28;20542;-69
2022/04/03 08:23:25;;;;;;;4.17;2.37;;;;;;;12.76;30.76;100864.53;5069323;28;20470;-67
2022/04/03 08:25:52;;;;;;;3.10;2.10;;;;;;;12.62;30.33;100863.13;5066278;28;20469;-68
2022/04/03 08:28:19;;;;;;;3.60;2.10;;;;;;;12.63;30.37;100862.09;5062939;28;20479;-67
2022/04/03 08:30:46;;;;;;;3.40;2.17;;;;;;;13.94;28.77;100866.94;5059405;28;20461;-69
2022/04/03 08:33:13;;;;;;;3.00;2.40;;;;;;;12.34;31.44;100870.97;5062139;28;20461;-77
2022/04/03 08:35:41;;;;;;;2.97;2.63;;;;;;;12.75;31.02;100869.03;5063093;28;20460;-71
2022/04/03 08:38:08;;;;;;;5.10;2.53;;;;;;;11.37;33.72;100873.09;5062176;28;20464;-73
2022/04/03 08:40:36;;;;;;;2.43;2.23;;;;;;;11.09;34.06;100867.41;5062369;28;20464;-73
2022/04/03 08:43:05;;;;;;;6.90;2.80;;;;;;;13.62;31.26;100869.16;5059676;28;20523;-73
2022/04/03 08:45:32;;;;;;;3.47;2.17;;;;;;;12.96;31.90;100870.75;5061338;28;20461;-79
2022/04/03 08:48:01;;;;;;;3.87;2.30;;;;;;;14.53;28.87;100871.16;5063652;28;20519;-73
2022/04/03 08:50:29;;;;;;;2.80;2.40;;;;;;;13.79;29.74;100868.41;5058216;28;20483;-71
2022/04/03 08:52:59;;;;;;;4.23;2.53;;;;;;;11.68;33.80;100874.00;5060978;28;20471;-70
2022/04/03 08:55:25;;;;;;;3.30;2.47;;;;;;;12.18;33.24;100871.44;5059665;28;20515;-70
2022/04/03 08:57:53;;;;;;;3.17;2.43;;;;;;;14.02;29.73;100885.00;5062130;28;20445;-71
2022/04/03 09:00:20;;;;;;;4.63;2.30;;;;;;;10.80;35.49;100877.84;5071780;28;20432;-67
2022/04/03 09:02:47;;;;;;;4.23;2.37;;;;;;;12.44;32.86;100876.31;5068459;28;20452;-67
2022/04/03 09:05:15;;;;;;;5.20;2.60;;;;;;;10.75;35.65;100883.59;5061637;28;20507;-67
2022/04/03 09:07:42;;;;;;;4.77;2.37;;;;;;;9.92;36.87;100883.06;5062266;28;20484;-67
2022/04/03 09:10:13;;;;;;;3.50;2.90;;;;;;;9.70;37.57;100877.69;5080987;28;20454;-67
2022/04/03 09:12:45;;;;;;;5.40;3.17;;;;;;;8.09;40.56;100875.38;5079076;28;21117;-66
2022/04/03 09:15:14;;;;;;;5.80;2.93;;;;;;;8.42;41.06;100869.47;5058342;28;20437;-66
2022/04/03 09:17:44;;;;;;;3.47;2.10;;;;;;;9.89;38.32;100866.44;5073324;28;20491;-66
2022/04/03 09:20:12;;;;;;;8.20;2.10;;;;;;;10.95;36.52;100865.88;5068858;28;20831;-67
2022/04/03 09:22:41;;;;;;;3.40;2.30;;;;;;;9.85;38.90;100870.31;5073344;28;20877;-66
2022/04/03 09:25:09;;;;;;;3.83;2.03;;;;;;;10.97;36.34;100855.94;5051214;28;20473;-67
2022/04/03 09:27:48;;;;;;;3.50;2.10;;;;;;;10.05;37.98;100872.28;5070443;28;20467;-66
2022/04/03 09:30:16;;;;;;;3.93;2.67;;;;;;;9.35;38.84;100860.75;5069709;28;20487;-66
2022/04/03 09:32:48;;;;;;;2.80;1.70;;;;;;;9.32;39.63;100862.81;5063225;28;20839;-67
2022/04/03 09:35:15;;;;;;;5.60;1.90;;;;;;;8.92;40.70;100864.00;5058697;28;20456;-66
2022/04/03 09:38:08;;;;;;;4.33;1.80;;;;;;;9.49;39.97;100858.88;5069876;28;20448;-67
2022/04/03 09:40:36;;;;;;;2.80;1.70;;;;;;;8.52;40.86;100850.97;5079661;28;20494;-67
2022/04/03 09:43:14;;;;;;;2.80;1.43;;;;;;;7.18;43.74;100863.00;5077338;28;20470;-66
2022/04/03 09:45:45;;;;;;;2.07;1.47;;;;;;;7.85;42.66;100851.34;5079634;28;20459;-67
2022/04/03 09:48:19;;;;;;;3.33;1.67;;;;;;;8.00;42.40;100849.38;5074617;28;20459;-67
2022/04/03 09:51:02;;;;;;;2.77;1.50;;;;;;;8.93;41.99;100851.56;5061539;28;20506;-66
2022/04/03 09:53:29;;;;;;;5.23;1.70;;;;;;;9.73;38.88;100856.09;5066966;28;20461;-66
2022/04/03 09:55:56;;;;;;;3.00;2.20;;;;;;;9.33;38.82;100846.69;5058399;28;20512;-67
2022/04/03 09:58:25;;;;;;;1.77;1.33;;;;;;;8.86;40.13;100849.34;5061661;28;20448;-67
2022/04/03 10:00:51;;;;;;;1.80;1.20;;;;;;;9.41;39.31;100851.47;5058605;28;20822;-67
2022/04/03 10:03:19;;;;;;;7.50;1.70;;;;;;;10.23;38.96;100837.88;5056036;28;20461;-67
2022/04/03 10:05:45;;;;;;;2.17;1.17;;;;;;;9.28;39.22;100853.38;5069701;28;20562;-67
2022/04/03 10:08:13;;;;;;;1.63;1.10;;;;;;;10.58;36.17;100847.53;5079212;28;20450;-66
2022/04/03 10:10:40;;;;;;;1.53;1.10;;;;;;;10.28;36.68;100846.38;5078392;28;20474;-67
2022/04/03 10:13:09;;;;;;;3.40;1.10;;;;;;;9.57;37.04;100845.78;5077825;28;20511;-68
2022/04/03 10:15:38;;;;;;;3.83;2.27;;;;;;;8.91;40.03;100848.16;5077260;28;20475;-66
2022/04/03 10:18:05;;;;;;;1.90;1.63;;;;;;;9.80;38.79;100831.47;5074753;28;20469;-66
2022/04/03 10:20:35;;;;;;;3.33;1.67;;;;;;;10.13;39.32;100827.06;5064549;28;20554;-67
2022/04/03 10:23:12;;;;;;;1.83;1.63;;;;;;;10.81;37.83;100826.91;5067723;28;20456;-66
2022/04/03 10:25:41;;;;;;;1.60;1.33;;;;;;;10.17;38.39;100822.31;5057228;28;20453;-67
2022/04/03 10:28:08;;;;;;;2.80;1.70;;;;;;;10.04;38.61;100821.63;5057397;28;20463;-67
2022/04/03 10:30:37;;;;;;;6.93;1.77;;;;;;;8.85;41.13;100834.31;5056958;28;20543;-66
2022/04/03 10:33:05;;;;;;;2.30;1.60;;;;;;;8.72;42.64;100832.69;5056981;28;20465;-67
2022/04/03 10:35:32;;;;;;;3.00;1.77;;;;;;;8.32;45.02;100828.44;5057582;28;20467;-67
2022/04/03 10:38:01;;;;;;;1.97;1.43;;;;;;;9.07;43.61;100821.19;5057784;28;20518;-67
2022/04/03 10:40:30;;;;;;;2.13;1.60;;;;;;;8.10;44.67;100823.81;5057043;28;20464;-66
2022/04/03 10:43:01;;;;;;;2.13;1.30;;;;;;;7.32;46.53;100824.84;5057768;28;20552;-66
2022/04/03 10:45:29;;;;;;;4.57;1.93;;;;;;;7.29;47.97;100825.03;5056775;28;20529;-66
2022/04/03 10:48:30;;;;;;;2.20;1.63;;;;;;;6.50;49.51;100821.47;5057770;28;20445;-67
2022/04/03 10:51:08;;;;;;;2.37;1.63;;;;;;;6.48;51.17;100824.22;5044117;28;20473;-66
2022/04/03 10:53:38;;;;;;;2.50;1.60;;;;;;;6.44;50.94;100821.84;5057109;28;20444;-67
2022/04/03 10:56:09;;;;;;;3.53;1.50;;;;;;;6.64;51.01;100817.91;5057468;28;20491;-67
2022/04/03 10:58:45;;;;;;;4.00;1.50;;;;;;;7.05;50.13;100811.63;5058804;28;20481;-67
2022/04/03 11:01:23;;;;;;;6.80;2.40;;;;;;;7.29;49.94;100811.75;5058179;28;20464;-67
2022/04/03 11:04:10;;;;;;;1.60;1.30;;;;;;;7.30;49.15;100811.66;5046674;28;20452;-66
2022/04/03 11:06:38;;;;;;;4.53;1.63;;;;;;;7.19;50.23;100810.66;5058042;28;20472;-67
2022/04/03 11:09:10;;;;;;;2.53;1.40;;;;;;;7.48;50.55;100808.66;5058554;28;20453;-67
2022/04/03 11:11:46;;;;;;;4.60;1.60;;;;;;;7.08;51.05;100809.63;5058049;28;20492;-67
2022/04/03 11:14:34;;;;;;;1.90;1.50;;;;;;;7.31;51.60;100807.19;5058507;28;20447;-67
2022/04/03 11:17:01;;;;;;;3.13;1.40;;;;;;;6.93;52.74;100813.31;5058265;28;20574;-67
2022/04/03 11:19:42;;;;;;;3.67;1.50;;;;;;;7.37;52.96;100819.22;5036995;28;20525;-66
2022/04/03 11:22:10;;;;;;;3.13;1.63;;;;;;;6.97;53.96;100812.16;5038519;28;20473;-67
2022/04/03 11:24:38;;;;;;;2.53;1.50;;;;;;;7.54;53.20;100802.94;5026039;28;20514;-67
2022/04/03 11:27:06;;;;;;;3.23;1.40;;;;;;;8.72;50.31;100812.19;5069414;28;20555;-67
2022/04/03 11:29:33;;;;;;;1.77;1.40;;;;;;;8.59;49.21;100804.28;5058527;28;20452;-67